Colby, KS

2:18 AM CST on November 21, 2019 (GMT -0600)
Shaltz

Weather History for KCBK - September, 2019

Change the Weather History Date:

Sunday, September 29, 2019

  Actual Average (WUND) Record (WUND)
Temperature  
Mean Temperature 71 °F -  
Max Temperature 89 °F - - (-1)
Min Temperature 53 °F - - (-1)
Cooling Degree Days 6    
Growing Degree Days 21 (Base 50)    
Moisture  
Dew Point 58 °F    
Average Humidity 66    
Maximum Humidity 100    
Minimum Humidity 26    
Precipitation  
Precipitation 0.00 in - - ()
Sea Level Pressure  
Sea Level Pressure 29.79 in    
Wind  
Wind Speed 18 mph (SSE)    
Max Wind Speed 33 mph    
Max Gust Speed 46 mph    
Visibility 8 miles    
Events      
Averages and records for this station are not official NWS values.
T = Trace of Precipitation, MM = Missing Value Source: NWS Daily Summary

Daily Weather History Graph

Daily Weather History Graph

Search for Another Location

Airport or City:

Astronomy

Sep. 29, 2019 Rise Set
Actual Time 7:38 AM CDT 7:30 PM CDT
Civil Twilight 7:11 AM CDT 7:56 PM CDT
Nautical Twilight 6:40 AM CDT 8:28 PM CDT
Astronomical Twilight 6:08 AM CDT 8:59 PM CDT
Moon 8:31 AM CDT (9/29) 8:31 PM CDT (9/29)
Length of Visible Light 12h 45m
Length of Day
11h 51m
New Moon, 1% of the Moon is Illuminated
Sep 29
New Moon
Oct 5
First Quarter
Oct 13
Full
Oct 21
Last Quarter
Oct 27
New

Hourly Weather History & Observations

Time (CDT) Temp. Heat Index Dew Point Humidity Pressure Visibility Wind Dir Wind Speed Gust Speed Precip Events Conditions
12:15 AM 53.6 °F - 53.6 °F 100% 29.90 in 0.5 mi SE 10.4 mph 17.3 mph N/A   Overcast
12:35 AM 53.6 °F - 53.6 °F 100% 29.89 in 0.5 mi SE 9.2 mph - N/A   Overcast
12:55 AM 55.4 °F - 55.4 °F 100% 29.88 in 0.5 mi SE 12.7 mph - N/A   Overcast
1:15 AM 55.4 °F - 55.4 °F 100% 29.88 in 0.5 mi SE 12.7 mph 19.6 mph N/A   Overcast
1:35 AM 57.2 °F - 57.2 °F 100% 29.88 in 0.5 mi SE 15.0 mph - N/A   Overcast
1:55 AM 59.0 °F - 59.0 °F 100% 29.87 in 0.5 mi SE 11.5 mph - N/A   Overcast
2:15 AM 59.0 °F - 59.0 °F 100% 29.87 in 0.5 mi SE 12.7 mph - N/A   Overcast
2:35 AM 59.0 °F - 59.0 °F 100% 29.87 in 0.5 mi SE 16.1 mph 20.7 mph N/A   Overcast
2:55 AM 59.0 °F - 59.0 °F 100% 29.87 in 0.5 mi SE 15.0 mph 18.4 mph N/A   Overcast
3:15 AM 59.0 °F - 59.0 °F 100% 29.86 in 0.5 mi SE 15.0 mph 18.4 mph N/A   Overcast
3:35 AM 59.0 °F - 59.0 °F 100% 29.85 in 0.5 mi SE 12.7 mph - N/A   Overcast
3:55 AM 59.0 °F - 59.0 °F 100% 29.84 in 0.5 mi SE 12.7 mph - N/A   Overcast
4:15 AM 60.8 °F - 60.8 °F 100% 29.84 in 3.0 mi SSE 16.1 mph 21.9 mph N/A   Overcast
4:35 AM 62.6 °F - 62.6 °F 100% 29.84 in 5.0 mi SSE 16.1 mph 21.9 mph N/A   Overcast
4:55 AM 62.6 °F - 62.6 °F 100% 29.84 in 5.0 mi SSE 15.0 mph - N/A   Overcast
5:15 AM 62.6 °F - 62.6 °F 100% 29.83 in 5.0 mi SSE 16.1 mph - N/A   Overcast
5:35 AM 62.6 °F - 62.6 °F 100% 29.82 in 7.0 mi SSE 12.7 mph - N/A   Overcast
5:55 AM 62.6 °F - 62.6 °F 100% 29.82 in 7.0 mi SSE 11.5 mph - N/A   Mostly Cloudy
6:15 AM 62.6 °F - 62.6 °F 100% 29.82 in 10.0 mi SSE 15.0 mph 19.6 mph N/A   Overcast
6:35 AM 62.6 °F - 62.6 °F 100% 29.82 in 10.0 mi SSE 15.0 mph - N/A   Overcast
6:55 AM 62.6 °F - 62.6 °F 100% 29.82 in 10.0 mi SSE 17.3 mph 20.7 mph N/A   Overcast
7:15 AM 62.6 °F - 62.6 °F 100% 29.82 in 10.0 mi SSE 13.8 mph - N/A   Overcast
7:35 AM 62.6 °F - 62.6 °F 100% 29.82 in 10.0 mi SSE 16.1 mph 21.9 mph N/A   Scattered Clouds
7:55 AM 62.6 °F - 62.6 °F 100% 29.82 in 10.0 mi South 13.8 mph - N/A   Scattered Clouds
8:15 AM 64.4 °F - 64.4 °F 100% 29.81 in 10.0 mi South 16.1 mph - N/A   Clear
8:35 AM 64.4 °F - 64.4 °F 100% 29.82 in 10.0 mi South 19.6 mph 26.5 mph N/A   Clear
8:55 AM 66.2 °F - 64.4 °F 94% 29.82 in 10.0 mi South 17.3 mph 26.5 mph N/A   Clear
9:15 AM 68.0 °F - 64.4 °F 88% 29.82 in 10.0 mi South 17.3 mph 27.6 mph N/A   Clear
9:35 AM 69.8 °F - 64.4 °F 83% 29.81 in 10.0 mi South 25.3 mph 32.2 mph N/A   Clear
9:55 AM 71.6 °F - 62.6 °F 73% 29.81 in 10.0 mi South 21.9 mph 31.1 mph N/A   Clear
10:15 AM 73.4 °F - 62.6 °F 69% 29.81 in 10.0 mi South 21.9 mph 28.8 mph N/A   Clear
10:35 AM 75.2 °F - 62.6 °F 65% 29.80 in 10.0 mi South 27.6 mph 35.7 mph N/A   Clear
10:55 AM 77.0 °F - 62.6 °F 61% 29.80 in 10.0 mi South 23.0 mph 36.8 mph N/A   Clear
11:35 AM 80.6 °F 81.5 °F 60.8 °F 51% 29.79 in 10.0 mi South 20.7 mph 34.5 mph N/A   Clear
11:55 AM 80.6 °F 81.5 °F 60.8 °F 51% 29.79 in 10.0 mi SSW 23.0 mph 36.8 mph N/A   Clear
12:15 PM 82.4 °F 82.5 °F 59.0 °F 45% 29.79 in 10.0 mi South 27.6 mph 35.7 mph N/A   Clear
12:35 PM 82.4 °F 81.7 °F 55.4 °F 39% 29.78 in 10.0 mi South 27.6 mph 36.8 mph N/A   Scattered Clouds
12:55 PM 86.0 °F 84.2 °F 53.6 °F 33% 29.77 in 10.0 mi South 24.2 mph 40.3 mph N/A   Scattered Clouds
1:15 PM 86.0 °F 84.2 °F 53.6 °F 33% 29.76 in 10.0 mi South 26.5 mph 36.8 mph N/A   Scattered Clouds
1:35 PM 87.8 °F - 51.8 °F 29% 29.75 in 10.0 mi South 29.9 mph 42.6 mph N/A   Clear
1:55 PM 87.8 °F - 51.8 °F 29% 29.74 in 10.0 mi South 33.4 mph 46.0 mph N/A   Clear
2:15 PM 87.8 °F - 50.0 °F 27% 29.74 in 10.0 mi South 29.9 mph 40.3 mph N/A   Clear
2:35 PM 89.6 °F - 51.8 °F 27% 29.73 in 10.0 mi South 29.9 mph 40.3 mph N/A   Clear
2:55 PM 89.6 °F - 50.0 °F 26% 29.72 in 10.0 mi South 28.8 mph 38.0 mph N/A   Scattered Clouds
3:15 PM 89.6 °F - 50.0 °F 26% 29.72 in 10.0 mi SSW 31.1 mph 40.3 mph N/A   Scattered Clouds
3:35 PM 89.6 °F - 50.0 °F 26% 29.72 in 10.0 mi South 27.6 mph 36.8 mph N/A   Scattered Clouds
3:55 PM 89.6 °F - 50.0 °F 26% 29.71 in 10.0 mi South 31.1 mph 40.3 mph N/A   Scattered Clouds
4:15 PM 89.6 °F 87.3 °F 53.6 °F 29% 29.71 in 10.0 mi South 26.5 mph 39.1 mph N/A   Scattered Clouds
4:35 PM 87.8 °F 85.7 °F 53.6 °F 31% 29.70 in 10.0 mi South 27.6 mph 38.0 mph N/A   Scattered Clouds
4:55 PM 87.8 °F 85.7 °F 53.6 °F 31% 29.70 in 10.0 mi South 27.6 mph 39.1 mph N/A   Clear
5:15 PM 87.8 °F 85.7 °F 53.6 °F 31% 29.69 in 10.0 mi South 33.4 mph 41.4 mph N/A   Clear
5:35 PM 87.8 °F 85.7 °F 53.6 °F 31% 29.70 in 10.0 mi South 25.3 mph 36.8 mph N/A   Clear
5:55 PM 87.8 °F 85.7 °F 53.6 °F 31% 29.70 in 10.0 mi South 29.9 mph 35.7 mph N/A   Clear
6:15 PM 87.8 °F - 51.8 °F 29% 29.70 in 10.0 mi South 25.3 mph 35.7 mph N/A   Clear
6:35 PM 86.0 °F 84.2 °F 53.6 °F 33% 29.70 in 10.0 mi South 21.9 mph 32.2 mph N/A   Clear
6:55 PM 86.0 °F - 51.8 °F 31% 29.71 in 10.0 mi South 25.3 mph 33.4 mph N/A   Clear
7:15 PM 84.2 °F - 51.8 °F 33% 29.71 in 10.0 mi South 21.9 mph 31.1 mph N/A   Clear
7:35 PM 82.4 °F 81.7 °F 55.4 °F 39% 29.72 in 10.0 mi South 19.6 mph 27.6 mph N/A   Clear
7:55 PM 80.6 °F 80.8 °F 57.2 °F 45% 29.73 in 10.0 mi SSE 18.4 mph 25.3 mph N/A   Clear
8:15 PM 80.6 °F 81.1 °F 59.0 °F 48% 29.73 in 10.0 mi SSE 19.6 mph 24.2 mph N/A   Clear
8:35 PM 78.8 °F - 60.8 °F 54% 29.74 in 10.0 mi SSE 19.6 mph 33.4 mph N/A   Clear
8:55 PM 78.8 °F - 60.8 °F 54% 29.75 in 10.0 mi South 26.5 mph 33.4 mph N/A   Clear
9:15 PM 78.8 °F - 62.6 °F 57% 29.75 in 10.0 mi South 27.6 mph 40.3 mph N/A   Clear
9:35 PM 78.8 °F - 62.6 °F 57% 29.76 in 10.0 mi South 26.5 mph 43.7 mph N/A   Clear
9:55 PM 77.0 °F - 62.6 °F 61% 29.77 in 10.0 mi South 25.3 mph 35.7 mph N/A   Clear
10:15 PM 77.0 °F - 62.6 °F 61% 29.77 in 10.0 mi South 25.3 mph 33.4 mph N/A   Clear
10:35 PM 77.0 °F - 62.6 °F 61% 29.77 in 10.0 mi South 24.2 mph 35.7 mph N/A   Clear
10:55 PM 75.2 °F - 62.6 °F 65% 29.77 in 10.0 mi South 26.5 mph 36.8 mph N/A   Clear
11:35 PM 73.4 °F - 62.6 °F 69% 29.77 in 10.0 mi South 26.5 mph 35.7 mph N/A   Clear
11:55 PM 73.4 °F - 62.6 °F 69% 29.78 in 10.0 mi South 25.3 mph 35.7 mph N/A   Clear